Time;durP1;ratioP1;P1;durP2;ratioP2;P2;SDS_P1;SDS_P2;PMS_P1;PMS_P2;Temp;Humidity;BMP_temperature;BMP_pressure;BME280_temperature;BME280_humidity;BME280_pressure;Samples;Min_cycle;Max_cycle;Signal;HPM_P1;HPM_P2
2023/12/25 00:00:31;;;;;;;0.40;0.40;;;;;;;5.03;100.00;96993.63;5065386;28;20025;-66
2023/12/25 00:02:56;;;;;;;0.40;0.40;;;;;;;5.09;100.00;97006.22;5065440;28;20111;-65
2023/12/25 00:05:21;;;;;;;0.40;0.40;;;;;;;5.11;100.00;96993.28;5047836;28;20021;-65
2023/12/25 00:07:47;;;;;;;0.40;0.40;;;;;;;5.10;100.00;96978.78;5065501;28;20021;-66
2023/12/25 00:10:12;;;;;;;0.40;0.40;;;;;;;5.16;100.00;96981.91;5065436;28;20021;-66
2023/12/25 00:12:37;;;;;;;0.40;0.40;;;;;;;5.16;100.00;96981.91;5065311;28;20036;-65
2023/12/25 00:15:03;;;;;;;0.40;0.40;;;;;;;5.23;100.00;96991.94;5065145;28;20025;-65
2023/12/25 00:17:28;;;;;;;0.40;0.40;;;;;;;5.17;100.00;96963.03;5065483;28;20474;-64
2023/12/25 00:19:54;;;;;;;0.40;0.40;;;;;;;5.27;100.00;96976.31;5065397;28;20672;-65
2023/12/25 00:22:19;;;;;;;0.40;0.40;;;;;;;5.29;100.00;96971.09;5065094;28;20025;-66
2023/12/25 00:24:44;;;;;;;0.40;0.40;;;;;;;5.29;100.00;96969.38;5047255;28;20035;-65
2023/12/25 00:27:10;;;;;;;0.60;0.60;;;;;;;5.33;100.00;96957.22;5065053;28;20470;-65
2023/12/25 00:29:35;;;;;;;0.40;0.40;;;;;;;5.30;100.00;96958.16;5064343;28;20116;-66
2023/12/25 00:32:01;;;;;;;0.40;0.40;;;;;;;5.36;100.00;96964.81;5064456;28;20024;-65
2023/12/25 00:34:26;;;;;;;0.40;0.40;;;;;;;5.40;100.00;96962.94;5064352;28;20032;-65
2023/12/25 00:36:51;;;;;;;0.40;0.40;;;;;;;5.40;100.00;96948.34;5064161;28;20448;-65
2023/12/25 00:39:17;;;;;;;0.40;0.40;;;;;;;5.40;100.00;96953.47;5064404;28;20380;-65
2023/12/25 00:41:42;;;;;;;0.40;0.40;;;;;;;5.43;100.00;96957.66;5064078;28;20025;-65
2023/12/25 00:44:08;;;;;;;0.40;0.40;;;;;;;5.44;100.00;96949.03;5064070;28;20075;-66
2023/12/25 00:46:33;;;;;;;0.47;0.47;;;;;;;5.41;100.00;96944.88;5046230;28;20021;-64
2023/12/25 00:48:58;;;;;;;0.40;0.40;;;;;;;5.44;100.00;96934.44;5064292;28;20025;-65
2023/12/25 00:51:25;;;;;;;0.40;0.40;;;;;;;5.50;100.00;96940.22;5069685;28;20052;-66
2023/12/25 00:53:50;;;;;;;0.40;0.40;;;;;;;5.51;100.00;96944.47;5070871;28;20162;-66
2023/12/25 00:56:16;;;;;;;0.40;0.40;;;;;;;5.51;100.00;96936.75;5070615;28;20493;-66
2023/12/25 00:58:41;;;;;;;0.40;0.40;;;;;;;5.41;100.00;96918.31;5070743;28;20021;-66
2023/12/25 01:01:07;;;;;;;0.32;0.32;;;;;;;5.49;100.00;96929.09;5070247;28;20025;-65
2023/12/25 01:03:32;;;;;;;0.40;0.40;;;;;;;5.51;100.00;96940.13;5070530;28;20024;-65
2023/12/25 01:05:57;;;;;;;0.40;0.40;;;;;;;5.52;100.00;96935.84;5070299;28;20025;-65
2023/12/25 01:08:23;;;;;;;0.40;0.40;;;;;;;5.53;100.00;96929.78;5070674;28;20528;-65
2023/12/25 01:10:48;;;;;;;0.40;0.40;;;;;;;5.53;100.00;96911.78;5070631;28;20029;-66
2023/12/25 01:13:13;;;;;;;0.40;0.40;;;;;;;5.55;100.00;96910.81;5070427;28;20034;-65
2023/12/25 01:15:39;;;;;;;0.40;0.40;;;;;;;5.56;100.00;96921.91;5070403;28;20028;-65
2023/12/25 01:18:04;;;;;;;0.40;0.40;;;;;;;5.45;100.00;96889.81;5070513;28;20531;-65
2023/12/25 01:20:29;;;;;;;0.40;0.40;;;;;;;5.50;100.00;96902.47;5070722;28;20055;-64
2023/12/25 01:22:55;;;;;;;0.40;0.40;;;;;;;5.45;100.00;96889.81;5070496;28;20112;-64
2023/12/25 01:25:20;;;;;;;0.40;0.40;;;;;;;5.45;100.00;96900.09;5070387;28;20055;-65
2023/12/25 01:27:46;;;;;;;0.40;0.40;;;;;;;5.45;100.00;96904.41;5052520;28;20036;-64
2023/12/25 01:30:12;;;;;;;0.40;0.40;;;;;;;5.46;100.00;96896.59;5032008;28;1107557;-65
2023/12/25 01:32:38;;;;;;;0.40;0.40;;;;;;;5.47;100.00;96894.88;5053276;28;20105;-64
2023/12/25 01:35:04;;;;;;;0.40;0.40;;;;;;;5.40;100.00;96878.06;5071306;28;20074;-64
2023/12/25 01:37:30;;;;;;;0.40;0.40;;;;;;;5.46;100.00;96877.78;5070698;28;20028;-65
2023/12/25 01:39:55;;;;;;;0.40;0.40;;;;;;;5.50;100.00;96879.31;5071355;28;20029;-65
2023/12/25 01:42:21;;;;;;;0.40;0.40;;;;;;;5.51;100.00;96882.72;5071272;28;20088;-65
2023/12/25 01:44:47;;;;;;;0.40;0.40;;;;;;;5.51;100.00;96885.28;5070923;28;20067;-64
2023/12/25 01:47:14;;;;;;;0.40;0.40;;;;;;;5.49;100.00;96935.97;5071154;28;20104;-63
2023/12/25 01:49:40;;;;;;;0.40;0.40;;;;;;;5.43;100.00;96895.94;5070582;28;20461;-64
2023/12/25 01:52:05;;;;;;;0.40;0.40;;;;;;;5.52;100.00;96910.09;5071264;28;20036;-65
2023/12/25 01:54:33;;;;;;;0.40;0.40;;;;;;;5.45;100.00;96897.53;5071143;28;20108;-65
2023/12/25 01:56:58;;;;;;;0.40;0.40;;;;;;;5.39;100.00;96890.06;5071114;28;20051;-65
2023/12/25 01:59:28;;;;;;;0.40;0.40;;;;;;;5.37;100.00;96891.88;5070933;28;20017;-64
2023/12/25 02:01:53;;;;;;;0.40;0.40;;;;;;;5.30;100.00;96911.06;5050360;28;20032;-65
2023/12/25 02:04:19;;;;;;;0.40;0.40;;;;;;;5.26;100.00;96924.94;5067643;28;20112;-65
2023/12/25 02:06:44;;;;;;;0.40;0.40;;;;;;;5.19;100.00;96912.34;5067657;28;20025;-65
2023/12/25 02:09:10;;;;;;;0.40;0.40;;;;;;;5.15;100.00;96913.38;5067782;28;20032;-65
2023/12/25 02:11:40;;;;;;;0.40;0.40;;;;;;;5.11;100.00;96906.72;5067659;28;20151;-64
2023/12/25 02:14:06;;;;;;;0.40;0.40;;;;;;;5.04;100.00;96901.00;5067490;28;20021;-64
2023/12/25 02:16:32;;;;;;;0.40;0.40;;;;;;;4.99;100.00;96912.34;5049759;28;20039;-64
2023/12/25 02:18:58;;;;;;;0.40;0.40;;;;;;;4.92;100.00;96909.22;5067442;28;20032;-64
2023/12/25 02:21:24;;;;;;;0.40;0.40;;;;;;;4.90;100.00;96908.44;5067517;28;20040;-65
2023/12/25 02:23:58;;;;;;;0.40;0.40;;;;;;;4.89;100.00;96910.19;5049527;28;20029;-64
2023/12/25 02:26:23;;;;;;;0.47;0.47;;;;;;;4.89;100.00;96910.19;5067538;28;20480;-65
2023/12/25 02:28:48;;;;;;;0.40;0.40;;;;;;;4.92;100.00;96915.19;5067204;28;20073;-65
2023/12/25 02:31:14;;;;;;;0.40;0.40;;;;;;;4.89;100.00;96927.34;5049320;28;20036;-66
2023/12/25 02:33:39;;;;;;;0.50;0.50;;;;;;;4.73;100.00;96924.56;5067205;28;20100;-66
2023/12/25 02:36:05;;;;;;;0.40;0.40;;;;;;;4.54;100.00;96913.31;5067327;28;20029;-66
2023/12/25 02:38:30;;;;;;;0.50;0.50;;;;;;;4.46;100.00;96899.91;5067058;28;20025;-66
2023/12/25 02:40:56;;;;;;;0.40;0.40;;;;;;;4.38;100.00;96918.22;5067028;28;20021;-66
2023/12/25 02:43:21;;;;;;;0.40;0.40;;;;;;;4.32;100.00;96924.44;5066846;28;20025;-66
2023/12/25 02:45:46;;;;;;;0.50;0.50;;;;;;;4.31;100.00;96919.38;5066915;28;20404;-65
2023/12/25 02:48:12;;;;;;;0.50;0.50;;;;;;;4.25;100.00;96924.75;5067119;28;20045;-67
2023/12/25 02:50:37;;;;;;;0.40;0.40;;;;;;;4.28;100.00;96932.31;5066952;28;20024;-65
2023/12/25 02:53:03;;;;;;;0.50;0.50;;;;;;;4.28;100.00;96925.44;5066946;28;20036;-65
2023/12/25 02:55:29;;;;;;;0.40;0.40;;;;;;;4.28;100.00;96928.00;5066903;28;20024;-66
2023/12/25 02:57:54;;;;;;;0.40;0.40;;;;;;;4.30;100.00;96909.97;5066758;28;20051;-65
2023/12/25 03:00:20;;;;;;;0.40;0.40;;;;;;;4.34;100.00;96917.50;5048798;28;20024;-66
2023/12/25 03:02:45;;;;;;;0.40;0.40;;;;;;;4.27;100.00;96912.66;5066778;28;20122;-66
2023/12/25 03:05:11;;;;;;;0.40;0.40;;;;;;;4.31;100.00;96914.22;5066632;28;20032;-65
2023/12/25 03:07:36;;;;;;;0.40;0.40;;;;;;;4.37;100.00;96925.97;5066678;28;20023;-65
2023/12/25 03:10:02;;;;;;;0.40;0.40;;;;;;;4.36;100.00;96919.19;5066454;28;20378;-65
2023/12/25 03:12:28;;;;;;;0.40;0.40;;;;;;;4.41;100.00;96912.13;5048279;28;20028;-66
2023/12/25 03:14:54;;;;;;;0.40;0.40;;;;;;;4.44;100.00;96906.88;5066174;28;20020;-66
2023/12/25 03:17:20;;;;;;;0.40;0.40;;;;;;;4.49;100.00;96925.47;5066491;28;20077;-66
2023/12/25 03:19:45;;;;;;;0.40;0.40;;;;;;;4.55;100.00;96896.16;5066440;28;20092;-66
2023/12/25 03:22:10;;;;;;;0.40;0.40;;;;;;;4.50;100.00;96924.59;5066145;28;20081;-66
2023/12/25 03:24:36;;;;;;;0.40;0.40;;;;;;;4.44;100.00;96904.31;5066438;28;20021;-65
2023/12/25 03:27:02;;;;;;;0.40;0.40;;;;;;;4.31;100.00;96911.66;5065964;28;20099;-66
2023/12/25 03:29:27;;;;;;;0.45;0.45;;;;;;;4.27;100.00;96915.22;5065911;28;20072;-65
2023/12/25 03:31:52;;;;;;;0.40;0.40;;;;;;;4.22;100.00;96918.81;5066267;28;20047;-65
2023/12/25 03:34:19;;;;;;;0.40;0.40;;;;;;;4.20;100.00;96901.81;5066287;28;20017;-65
2023/12/25 03:36:45;;;;;;;0.43;0.43;;;;;;;4.21;100.00;96911.19;5066221;28;20021;-63
2023/12/25 03:39:10;;;;;;;0.40;0.40;;;;;;;4.22;100.00;96893.16;5066072;28;20021;-65
2023/12/25 03:41:36;;;;;;;0.40;0.40;;;;;;;4.27;100.00;96898.09;5065972;28;20085;-65
2023/12/25 03:44:01;;;;;;;0.40;0.40;;;;;;;4.32;100.00;96895.34;5065902;28;20021;-65
2023/12/25 03:46:27;;;;;;;0.40;0.40;;;;;;;4.37;100.00;96897.72;5065876;28;20427;-65
2023/12/25 03:48:52;;;;;;;0.40;0.40;;;;;;;4.40;100.00;96890.75;5048132;28;20029;-65
2023/12/25 03:51:17;;;;;;;0.40;0.40;;;;;;;4.45;100.00;96886.25;5047960;28;20112;-64
2023/12/25 03:53:43;;;;;;;0.40;0.40;;;;;;;4.51;100.00;96876.63;5065886;28;20021;-65
2023/12/25 03:56:08;;;;;;;0.40;0.40;;;;;;;4.56;100.00;96882.41;5065730;28;20059;-66
2023/12/25 03:58:34;;;;;;;0.40;0.40;;;;;;;4.60;100.00;96878.81;5065706;28;20033;-66
2023/12/25 04:01:00;;;;;;;0.40;0.40;;;;;;;4.63;100.00;96885.56;5065305;28;20024;-66
2023/12/25 04:03:26;;;;;;;0.40;0.40;;;;;;;4.61;100.00;96877.94;5065549;28;20029;-67
2023/12/25 04:05:51;;;;;;;0.40;0.40;;;;;;;4.68;100.00;96888.78;5065565;28;20027;-67
2023/12/25 04:08:17;;;;;;;0.40;0.40;;;;;;;4.70;100.00;96877.53;5065463;28;20024;-67
2023/12/25 04:10:42;;;;;;;0.40;0.40;;;;;;;4.69;100.00;96881.03;5065521;28;20099;-67
2023/12/25 04:13:07;;;;;;;0.40;0.40;;;;;;;4.70;100.00;96880.09;5065378;28;20020;-67
2023/12/25 04:15:33;;;;;;;0.40;0.40;;;;;;;4.68;100.00;96873.38;5047136;28;20051;-67
2023/12/25 04:17:58;;;;;;;0.40;0.40;;;;;;;4.64;100.00;96875.22;5065148;28;20032;-67
2023/12/25 04:20:23;;;;;;;0.40;0.40;;;;;;;4.65;100.00;96869.19;5065456;28;20025;-66
2023/12/25 04:22:49;;;;;;;0.40;0.40;;;;;;;4.65;100.00;96858.09;5065361;28;20016;-66
2023/12/25 04:25:14;;;;;;;0.40;0.40;;;;;;;4.66;100.00;96863.16;5064676;28;20505;-67
2023/12/25 04:27:40;;;;;;;0.40;0.40;;;;;;;4.68;100.00;96863.91;5047179;28;20055;-67
2023/12/25 04:30:06;;;;;;;0.40;0.40;;;;;;;4.74;100.00;96877.41;5065033;28;20079;-67
2023/12/25 04:32:32;;;;;;;0.40;0.40;;;;;;;4.76;100.00;96863.59;5047236;28;20032;-67
2023/12/25 04:34:57;;;;;;;0.40;0.40;;;;;;;4.79;100.00;96845.47;5065143;28;20304;-67
2023/12/25 04:37:22;;;;;;;0.40;0.40;;;;;;;4.83;100.00;96853.88;5065033;28;20078;-66
2023/12/25 04:39:48;;;;;;;0.40;0.40;;;;;;;4.84;100.00;96853.81;5064984;28;20036;-66
2023/12/25 04:42:13;;;;;;;0.40;0.40;;;;;;;4.87;100.00;96850.31;5064925;28;20047;-66
2023/12/25 04:44:38;;;;;;;0.40;0.40;;;;;;;4.84;100.00;96824.72;5064959;28;20465;-66
2023/12/25 04:47:04;;;;;;;0.40;0.40;;;;;;;4.86;100.00;96845.22;5064867;28;20089;-65
2023/12/25 04:49:29;;;;;;;0.40;0.40;;;;;;;4.80;100.00;96829.16;5047260;28;20028;-66
2023/12/25 04:51:54;;;;;;;0.40;0.40;;;;;;;4.83;100.00;96841.03;5046903;28;20071;-66
2023/12/25 04:54:20;;;;;;;0.40;0.40;;;;;;;4.81;100.00;96837.69;5064890;28;20020;-66
2023/12/25 04:56:45;;;;;;;0.40;0.40;;;;;;;4.78;100.00;96833.53;5064717;28;20025;-66
2023/12/25 04:59:10;;;;;;;0.40;0.40;;;;;;;4.82;100.00;96839.38;5064427;28;20017;-66
2023/12/25 05:01:36;;;;;;;0.40;0.40;;;;;;;4.82;100.00;96822.19;5047037;28;20074;-65
2023/12/25 05:04:02;;;;;;;0.40;0.40;;;;;;;4.66;100.00;96803.22;5064716;28;20025;-66
2023/12/25 05:06:27;;;;;;;0.40;0.40;;;;;;;4.62;100.00;96799.94;5064783;28;20208;-66
2023/12/25 05:08:52;;;;;;;0.40;0.40;;;;;;;4.70;100.00;96818.44;5064955;28;20021;-66
2023/12/25 05:11:18;;;;;;;0.40;0.40;;;;;;;4.71;100.00;96820.09;5046785;28;20074;-66
2023/12/25 05:13:43;;;;;;;1.02;1.02;;;;;;;4.65;100.00;96810.09;5064897;28;20032;-67
2023/12/25 05:16:08;;;;;;;72.47;4.38;;;;;;;4.68;100.00;96807.38;5064666;28;20025;-67
2023/12/25 05:18:34;;;;;;;0.40;0.40;;;;;;;4.55;100.00;96793.41;5064643;28;20033;-67
2023/12/25 05:20:59;;;;;;;2.60;2.50;;;;;;;4.68;100.00;96806.56;5064665;28;20036;-67
2023/12/25 05:23:24;;;;;;;0.60;0.60;;;;;;;4.68;100.00;96822.78;5064856;28;20053;-66
2023/12/25 05:25:50;;;;;;;0.40;0.40;;;;;;;4.65;100.00;96812.66;5064535;28;20369;-67
2023/12/25 05:28:15;;;;;;;0.40;0.40;;;;;;;4.67;100.00;96805.72;5064541;28;20029;-67
2023/12/25 05:30:40;;;;;;;4.07;2.72;;;;;;;4.73;100.00;96812.31;5064298;28;20049;-67
2023/12/25 05:33:06;;;;;;;0.40;0.40;;;;;;;4.77;100.00;96815.59;5064441;28;20020;-67
2023/12/25 05:35:31;;;;;;;0.50;0.50;;;;;;;4.77;100.00;96816.44;5046599;28;20028;-66
2023/12/25 05:37:56;;;;;;;0.40;0.40;;;;;;;4.81;100.00;96812.00;5068254;28;20025;-65
2023/12/25 05:40:22;;;;;;;0.40;0.40;;;;;;;4.85;100.00;96805.84;5068321;28;20469;-66
2023/12/25 05:42:48;;;;;;;0.40;0.40;;;;;;;4.86;100.00;96798.97;5068127;28;20029;-66
2023/12/25 05:45:13;;;;;;;0.40;0.40;;;;;;;4.80;100.00;96797.47;5067985;28;20024;-65
2023/12/25 05:47:39;;;;;;;0.40;0.40;;;;;;;4.85;100.00;96800.69;5067979;28;20031;-66
2023/12/25 05:50:08;;;;;;;3.65;3.42;;;;;;;4.86;100.00;96796.41;5050447;28;20032;-66
2023/12/25 05:52:33;;;;;;;0.40;0.40;;;;;;;4.88;100.00;96776.59;5067904;28;20028;-66
2023/12/25 05:55:00;;;;;;;0.95;0.95;;;;;;;4.85;100.00;96782.69;5068014;28;20029;-66
2023/12/25 05:57:25;;;;;;;1.45;1.40;;;;;;;4.87;100.00;96793.75;5049955;28;20028;-66
2023/12/25 05:59:50;;;;;;;2.53;2.42;;;;;;;4.91;100.00;96797.00;5067865;28;20366;-66
2023/12/25 06:02:16;;;;;;;0.50;0.50;;;;;;;4.93;100.00;96801.19;5049950;28;20040;-66
2023/12/25 06:04:42;;;;;;;1.77;1.67;;;;;;;4.88;100.00;96772.28;5068023;28;20025;-67
2023/12/25 06:07:08;;;;;;;0.40;0.40;;;;;;;4.93;100.00;96785.78;5049534;28;20031;-66
2023/12/25 06:09:33;;;;;;;0.40;0.40;;;;;;;5.00;100.00;96794.03;5067807;28;20025;-66
2023/12/25 06:11:59;;;;;;;0.40;0.40;;;;;;;4.95;100.00;96772.84;5067579;28;20039;-66
2023/12/25 06:14:24;;;;;;;0.60;0.60;;;;;;;5.00;100.00;96782.94;5049414;28;20138;-66
2023/12/25 06:16:49;;;;;;;0.40;0.40;;;;;;;4.99;100.00;96776.94;5049868;28;20028;-65
2023/12/25 06:19:15;;;;;;;0.50;0.50;;;;;;;5.14;100.00;96802.88;5067689;28;20053;-65
2023/12/25 06:21:40;;;;;;;0.50;0.50;;;;;;;5.09;100.00;96790.22;5067584;28;20040;-66
2023/12/25 06:24:06;;;;;;;0.40;0.40;;;;;;;5.15;100.00;96787.38;5049643;28;20029;-65
2023/12/25 06:26:31;;;;;;;0.40;0.40;;;;;;;5.20;100.00;96805.19;5049576;28;20024;-65
2023/12/25 06:28:56;;;;;;;0.40;0.40;;;;;;;5.25;100.00;96799.81;5067413;28;20072;-66
2023/12/25 06:31:21;;;;;;;0.50;0.50;;;;;;;5.30;100.00;96814.13;5067302;28;20185;-65
2023/12/25 06:33:47;;;;;;;0.73;0.73;;;;;;;5.33;100.00;96810.59;5049436;28;20052;-66
2023/12/25 06:36:12;;;;;;;0.40;0.40;;;;;;;5.41;100.00;96790.53;5067162;28;20032;-65
2023/12/25 06:38:37;;;;;;;0.40;0.40;;;;;;;5.43;100.00;96808.47;5067220;28;20080;-66
2023/12/25 06:41:03;;;;;;;0.40;0.40;;;;;;;5.51;100.00;96813.25;5067302;28;20025;-65
2023/12/25 06:43:29;;;;;;;0.88;0.88;;;;;;;5.46;100.00;96811.72;5066977;28;20450;-65
2023/12/25 06:45:54;;;;;;;0.70;0.70;;;;;;;5.54;100.00;96810.53;5066861;28;20056;-66
2023/12/25 06:48:20;;;;;;;0.88;0.88;;;;;;;5.48;100.00;96795.38;5066254;28;20055;-67
2023/12/25 06:50:45;;;;;;;6.47;3.22;;;;;;;5.61;100.00;96826.53;5066983;28;20017;-66
2023/12/25 06:53:10;;;;;;;0.40;0.40;;;;;;;5.58;100.00;96818.03;5049020;28;20031;-66
2023/12/25 06:55:36;;;;;;;0.40;0.40;;;;;;;5.66;100.00;96827.13;5066732;28;20031;-67
2023/12/25 06:58:01;;;;;;;0.40;0.40;;;;;;;5.69;100.00;96834.72;5066722;28;20025;-67
2023/12/25 07:00:27;;;;;;;0.70;0.70;;;;;;;5.65;100.00;96848.63;5066661;28;20032;-67
2023/12/25 07:02:52;;;;;;;0.50;0.50;;;;;;;5.68;100.00;96839.03;5048796;28;20017;-68
2023/12/25 07:05:17;;;;;;;0.40;0.40;;;;;;;5.67;100.00;96847.66;5066575;28;20025;-68
2023/12/25 07:07:43;;;;;;;0.40;0.40;;;;;;;5.63;100.00;96848.72;5066695;28;20021;-68
2023/12/25 07:10:08;;;;;;;0.40;0.40;;;;;;;5.76;100.00;96868.72;5066903;28;20020;-69
2023/12/25 07:12:34;;;;;;;0.43;0.43;;;;;;;5.77;100.00;96858.38;5066603;28;20016;-68
2023/12/25 07:14:59;;;;;;;0.40;0.40;;;;;;;5.79;100.00;96874.56;5066458;28;20111;-70
2023/12/25 07:17:24;;;;;;;0.40;0.40;;;;;;;5.75;100.00;96873.03;5066424;28;20021;-68
2023/12/25 07:19:50;;;;;;;0.40;0.40;;;;;;;5.83;100.00;96880.44;5066501;28;20032;-69
2023/12/25 07:22:15;;;;;;;0.45;0.45;;;;;;;5.89;100.00;96887.03;5066255;28;20032;-68
2023/12/25 07:24:41;;;;;;;0.40;0.40;;;;;;;5.85;100.00;96886.31;5066390;28;20358;-68
2023/12/25 07:27:06;;;;;;;0.40;0.40;;;;;;;5.85;100.00;96894.03;5066376;28;20084;-68
2023/12/25 07:29:31;;;;;;;0.40;0.40;;;;;;;5.85;100.00;96895.81;5065819;28;20040;-68
2023/12/25 07:31:57;;;;;;;1.35;1.30;;;;;;;5.84;100.00;96892.38;5066458;28;20025;-68
2023/12/25 07:34:22;;;;;;;0.40;0.40;;;;;;;5.81;100.00;96907.97;5066297;28;20449;-69
2023/12/25 07:36:48;;;;;;;3.40;2.25;;;;;;;5.86;100.00;96918.06;5066210;28;20032;-69
2023/12/25 07:39:14;;;;;;;0.40;0.40;;;;;;;5.91;100.00;96911.78;5066247;28;20121;-69
2023/12/25 07:41:41;;;;;;;0.43;0.43;;;;;;;5.84;100.00;96910.41;5047966;28;20112;-68
2023/12/25 07:44:07;;;;;;;0.40;0.40;;;;;;;5.91;100.00;96926.41;5066087;28;20102;-68
2023/12/25 07:46:32;;;;;;;0.73;0.73;;;;;;;5.90;100.00;96919.56;5065910;28;20465;-68
2023/12/25 07:48:57;;;;;;;0.40;0.40;;;;;;;5.93;100.00;96940.88;5065915;28;20021;-68
2023/12/25 07:51:23;;;;;;;0.77;0.77;;;;;;;5.88;100.00;96947.97;5065908;28;20017;-65
2023/12/25 07:53:49;;;;;;;0.40;0.40;;;;;;;5.84;100.00;96946.44;5065839;28;20021;-69
2023/12/25 07:56:14;;;;;;;0.50;0.50;;;;;;;5.82;100.00;96963.69;5065620;28;20043;-69
2023/12/25 07:58:40;;;;;;;0.50;0.50;;;;;;;5.85;100.00;96966.13;5065709;28;20025;-67
2023/12/25 08:01:05;;;;;;;1.63;1.60;;;;;;;5.81;100.00;96977.47;5064662;28;20090;-68
2023/12/25 08:03:31;;;;;;;1.05;1.05;;;;;;;5.69;100.00;96969.38;5047622;28;20115;-68
2023/12/25 08:05:56;;;;;;;0.40;0.40;;;;;;;5.87;100.00;96984.94;5065722;28;20040;-67
2023/12/25 08:08:21;;;;;;;0.52;0.52;;;;;;;5.75;100.00;96994.00;5065493;28;20016;-66
2023/12/25 08:10:47;;;;;;;0.47;0.47;;;;;;;5.66;100.00;96999.56;5065559;28;20068;-65
2023/12/25 08:13:17;;;;;;;0.40;0.40;;;;;;;5.69;100.00;97000.28;5065602;28;20032;-66
2023/12/25 08:15:43;;;;;;;0.50;0.50;;;;;;;5.74;100.00;97001.78;5047311;28;20381;-65
2023/12/25 08:18:08;;;;;;;0.40;0.40;;;;;;;5.67;100.00;97003.81;5065380;28;20046;-66
2023/12/25 08:20:34;;;;;;;1.05;1.05;;;;;;;5.75;100.00;97026.66;5065417;28;20373;-66
2023/12/25 08:22:59;;;;;;;0.50;0.50;;;;;;;5.66;100.00;97036.44;5065184;28;20076;-65
2023/12/25 08:25:24;;;;;;;0.40;0.40;;;;;;;5.59;100.00;97055.63;5065246;28;20024;-66
2023/12/25 08:27:50;;;;;;;0.40;0.40;;;;;;;5.65;100.00;97050.22;5047327;28;20024;-65
2023/12/25 08:30:15;;;;;;;0.40;0.40;;;;;;;5.58;100.00;97049.63;5065084;28;20053;-66
2023/12/25 08:32:41;;;;;;;0.40;0.40;;;;;;;5.55;100.00;97057.50;5065201;28;20024;-66
2023/12/25 08:35:06;;;;;;;1.00;0.95;;;;;;;5.61;100.00;97065.84;5065094;28;20017;-65
2023/12/25 08:37:31;;;;;;;0.93;0.93;;;;;;;5.54;100.00;97065.28;5065292;28;20032;-67
2023/12/25 08:39:57;;;;;;;0.50;0.50;;;;;;;5.57;100.00;97068.53;5065229;28;20025;-66
2023/12/25 08:42:22;;;;;;;0.40;0.40;;;;;;;5.46;100.00;97091.31;5064942;28;20025;-66
2023/12/25 08:44:48;;;;;;;0.50;0.50;;;;;;;5.45;100.00;97090.47;5064908;28;20112;-65
2023/12/25 08:47:14;;;;;;;0.43;0.43;;;;;;;5.44;100.00;97090.53;5065326;28;20017;-66
2023/12/25 08:49:40;;;;;;;2.55;2.42;;;;;;;5.49;100.00;97100.66;5064921;28;20025;-65
2023/12/25 08:52:05;;;;;;;0.70;0.70;;;;;;;5.41;100.00;97106.94;5065318;28;20017;-66
2023/12/25 08:54:31;;;;;;;0.40;0.40;;;;;;;5.48;100.00;97106.69;5064703;28;20017;-66
2023/12/25 08:57:00;;;;;;;0.47;0.47;;;;;;;5.44;100.00;97103.41;5064497;28;20029;-66
2023/12/25 08:59:25;;;;;;;0.45;0.45;;;;;;;5.46;100.00;97083.59;5064366;28;20052;-66
2023/12/25 09:01:51;;;;;;;0.40;0.40;;;;;;;5.54;100.00;97125.28;5064677;28;20025;-66
2023/12/25 09:04:17;;;;;;;0.40;0.40;;;;;;;5.58;100.00;97120.84;5064344;28;20469;-67
2023/12/25 09:06:42;;;;;;;5.60;2.70;;;;;;;5.49;100.00;97134.09;5064225;28;20029;-67
2023/12/25 09:09:09;;;;;;;10.40;1.45;;;;;;;5.50;100.00;97140.91;5064578;28;20052;-67
2023/12/25 09:11:35;;;;;;;0.50;0.50;;;;;;;5.55;100.00;97151.84;5066200;28;20021;-67
2023/12/25 09:14:01;;;;;;;2.50;2.05;;;;;;;5.55;100.00;97146.69;5068856;28;20029;-66
2023/12/25 09:16:26;;;;;;;0.40;0.40;;;;;;;5.56;99.71;97118.34;5050458;28;20078;-66
2023/12/25 09:18:51;;;;;;;1.00;0.95;;;;;;;5.65;98.81;97172.91;5068620;28;20457;-66
2023/12/25 09:21:17;;;;;;;0.50;0.50;;;;;;;5.52;98.06;97152.81;5068254;28;20028;-66
2023/12/25 09:23:42;;;;;;;0.60;0.60;;;;;;;5.61;98.11;97156.75;5050313;28;20079;-66
2023/12/25 09:26:08;;;;;;;0.73;0.70;;;;;;;5.77;98.27;97184.44;5068650;28;20104;-68
2023/12/25 09:28:33;;;;;;;7.97;3.40;;;;;;;5.81;97.52;97175.69;5068250;28;20047;-66
2023/12/25 09:30:59;;;;;;;1.38;1.08;;;;;;;5.83;95.86;97179.06;5068272;28;20032;-67
2023/12/25 09:33:24;;;;;;;3.20;1.48;;;;;;;5.70;96.75;97182.09;5050306;28;20063;-65
2023/12/25 09:35:51;;;;;;;4.07;2.70;;;;;;;5.80;96.52;97189.44;5068053;28;20025;-66
2023/12/25 09:38:16;;;;;;;0.65;0.65;;;;;;;5.91;95.69;97184.69;5068370;28;20082;-67
2023/12/25 09:40:42;;;;;;;9.48;2.47;;;;;;;5.97;95.40;97187.94;5068408;28;20029;-66
2023/12/25 09:43:07;;;;;;;6.28;2.30;;;;;;;6.10;95.36;97198.59;5067985;28;20577;-66
2023/12/25 09:45:36;;;;;;;0.95;0.68;;;;;;;6.29;94.72;97193.50;5068011;28;20178;-66
2023/12/25 09:48:02;;;;;;;0.50;0.50;;;;;;;6.47;93.44;97173.00;5068229;28;20105;-66
2023/12/25 09:50:30;;;;;;;1.60;1.35;;;;;;;6.64;91.13;97216.91;5068234;28;20025;-65
2023/12/25 09:52:55;;;;;;;14.80;1.65;;;;;;;6.91;89.93;97218.31;5068099;28;20085;-65
2023/12/25 09:55:21;;;;;;;11.15;2.08;;;;;;;7.03;89.02;97214.34;5067987;28;20021;-63
2023/12/25 09:57:47;;;;;;;5.88;1.77;;;;;;;7.28;88.73;97218.38;5067795;28;20052;-63
2023/12/25 10:00:13;;;;;;;16.15;1.88;;;;;;;7.37;87.65;97228.28;5067714;28;20031;-65
2023/12/25 10:02:45;;;;;;;2.92;0.85;;;;;;;7.38;86.17;97252.34;5067849;28;20021;-62
2023/12/25 10:05:10;;;;;;;1.05;0.98;;;;;;;7.50;83.21;97227.69;5067805;28;20031;-63
2023/12/25 10:07:36;;;;;;;2.72;1.00;;;;;;;7.29;82.84;97253.59;5067600;28;20033;-63
2023/12/25 10:10:02;;;;;;;1.38;1.20;;;;;;;7.23;82.16;97246.97;5067510;28;20024;-63
2023/12/25 10:12:27;;;;;;;1.45;1.25;;;;;;;7.09;82.94;97263.09;5067687;28;20013;-66
2023/12/25 10:14:53;;;;;;;1.33;1.05;;;;;;;6.85;80.62;97258.13;5067305;28;20025;-63
2023/12/25 10:17:18;;;;;;;10.43;1.50;;;;;;;6.72;81.02;97293.06;5067562;28;20025;-64
2023/12/25 10:19:51;;;;;;;3.55;1.10;;;;;;;6.68;82.59;97290.63;5067701;28;20017;-63
2023/12/25 10:22:38;;;;;;;1.65;1.42;;;;;;;6.68;83.70;97289.78;5066580;28;20037;-64
2023/12/25 10:25:07;;;;;;;4.07;1.58;;;;;;;6.55;82.88;97304.94;5067538;28;20025;-63
2023/12/25 10:27:43;;;;;;;1.13;0.73;;;;;;;6.45;80.72;97299.34;5067265;28;20538;-64
2023/12/25 10:30:29;;;;;;;2.22;2.05;;;;;;;6.34;81.79;97304.09;5066786;28;20358;-63
2023/12/25 10:33:10;;;;;;;3.15;1.35;;;;;;;6.32;81.17;97286.13;5067152;28;20064;-64
2023/12/25 10:35:35;;;;;;;9.18;2.15;;;;;;;6.40;82.05;97334.75;5066963;28;20028;-64
2023/12/25 10:38:04;;;;;;;12.18;3.13;;;;;;;6.45;82.17;97338.00;5067175;28;20021;-64
2023/12/25 10:40:31;;;;;;;0.75;0.75;;;;;;;6.35;81.05;97341.81;5066935;28;20461;-64
2023/12/25 10:42:57;;;;;;;0.40;0.40;;;;;;;6.24;80.35;97330.22;5066926;28;20025;-64
2023/12/25 10:45:24;;;;;;;0.55;0.55;;;;;;;6.18;79.84;97364.78;5048838;28;20079;-65
2023/12/25 10:47:51;;;;;;;0.50;0.50;;;;;;;6.02;78.66;97361.94;5066983;28;20025;-65
2023/12/25 10:50:26;;;;;;;1.00;1.00;;;;;;;5.91;77.62;97377.00;5066903;28;20507;-66
2023/12/25 10:52:59;;;;;;;0.70;0.70;;;;;;;5.81;77.77;97384.22;5048993;28;20017;-64
2023/12/25 10:55:35;;;;;;;0.50;0.50;;;;;;;5.77;77.93;97393.78;5066958;28;20027;-65
2023/12/25 10:58:01;;;;;;;1.48;1.38;;;;;;;5.66;77.20;97396.78;5066472;28;20295;-66
2023/12/25 11:00:29;;;;;;;3.30;1.65;;;;;;;5.55;77.77;97396.31;5048543;28;20040;-65
2023/12/25 11:02:57;;;;;;;0.77;0.77;;;;;;;5.48;77.52;97407.75;5066669;28;20049;-66
2023/12/25 11:05:24;;;;;;;0.63;0.63;;;;;;;5.60;76.33;97391.84;5048517;28;20174;-67
2023/12/25 11:07:49;;;;;;;0.73;0.73;;;;;;;5.56;75.88;97427.16;5066058;28;20017;-66
2023/12/25 11:10:15;;;;;;;2.65;1.58;;;;;;;5.55;76.67;97434.91;5065144;28;20112;-66
2023/12/25 11:12:40;;;;;;;0.88;0.88;;;;;;;5.56;75.84;97452.03;5066042;28;20025;-65
2023/12/25 11:15:06;;;;;;;0.70;0.70;;;;;;;5.62;75.86;97425.25;5066029;28;20048;-66
2023/12/25 11:17:34;;;;;;;3.15;1.50;;;;;;;5.52;76.19;97455.63;5066038;28;20029;-66
2023/12/25 11:20:03;;;;;;;5.93;1.17;;;;;;;5.57;75.84;97470.00;5066258;28;20025;-66
2023/12/25 11:22:33;;;;;;;0.73;0.73;;;;;;;5.58;76.54;97456.25;5066310;28;20021;-66
2023/12/25 11:25:00;;;;;;;4.93;1.27;;;;;;;5.56;75.97;97482.91;5066277;28;20049;-66
2023/12/25 11:27:29;;;;;;;1.45;1.02;;;;;;;5.54;75.60;97467.53;5066361;28;20029;-66